Ravine, Pennsylvania
Current Conditions -  °F | °C
As of 12:58 AM on Sunday 23 Nov 2014 (Local Time) from KMUI Reporting Station
Few Clouds Few Clouds  
Wind Chill: 31°   Ceiling: Unl
Heat Index: 31°   Visibility: 10mi
Dew Point: 22°   Wind: 2mph
Humidity: 69%   Direction: 80°E
Pressure: 30.19"   Gusts: NA
Location:  40.57°N, 76.4°W
Report Text: KMUI 230558Z AUTO 08002KT 10SM FEW075 M01/M06 A3019 RMK AO2 SLP231 T10071057 10040 21011 58008 $
Loading
Personal Weather Stations






























Interactive Weather Map New forecast layout! Learn more

10-Day Weather Forecast

Advertisements
Track Severe Weather on mobile